createdAt,value
2018-12-24T00:02:53.961Z,7.33
2018-12-24T00:05:35.585Z,6.23
2018-12-24T00:08:16.541Z,5.73
2018-12-24T00:10:56.111Z,5.50
2018-12-24T00:19:04.439Z,5.47
2018-12-24T00:22:13.439Z,6.03
2018-12-24T00:25:03.961Z,5.10
2018-12-24T00:33:30.682Z,5.47
2018-12-24T00:36:00.937Z,6.60
2018-12-24T00:38:51.584Z,5.80
2018-12-24T00:41:21.767Z,6.07
2018-12-24T00:46:48.035Z,5.90
2018-12-24T00:49:57.273Z,5.10
2018-12-24T00:52:29.297Z,5.80
2018-12-24T01:06:21.071Z,4.80
2018-12-24T01:09:10.065Z,4.17
2018-12-24T01:12:24.559Z,4.50
2018-12-24T01:18:08.209Z,4.33
2018-12-24T01:20:57.279Z,4.20
2018-12-24T01:23:38.745Z,4.67
2018-12-24T01:26:27.788Z,4.70
2018-12-24T01:28:58.187Z,4.40
2018-12-24T01:32:07.345Z,4.33
2018-12-24T01:34:56.380Z,4.50
2018-12-24T01:40:12.681Z,3.80
2018-12-24T01:43:01.886Z,3.90
2018-12-24T01:45:32.216Z,5.27
2018-12-24T01:48:02.606Z,4.20
2018-12-24T01:50:33.371Z,4.63
2018-12-24T01:53:42.573Z,4.33
2018-12-24T01:59:46.061Z,4.10
2018-12-24T02:05:26.400Z,3.97
2018-12-24T02:07:56.673Z,4.00
2018-12-24T02:14:00.180Z,4.63
2018-12-24T02:22:33.612Z,4.60
2018-12-24T02:28:18.822Z,4.83
2018-12-24T02:42:34.165Z,4.33
2018-12-24T02:45:24.633Z,5.60
2018-12-24T02:48:08.582Z,5.13
2018-12-24T02:50:38.992Z,5.37
2018-12-24T02:53:09.872Z,5.87
2018-12-24T02:56:19.053Z,5.37
2018-12-24T02:59:08.098Z,5.50
2018-12-24T03:01:49.906Z,5.60
2018-12-24T03:04:40.568Z,5.83
2018-12-24T03:07:31.070Z,5.22
2018-12-24T03:13:29.758Z,4.20
2018-12-24T03:16:10.484Z,5.40
2018-12-24T03:18:59.655Z,4.47
2018-12-24T03:21:50.111Z,4.70
2018-12-24T03:24:40.585Z,4.83
2018-12-24T03:27:10.775Z,5.13
2018-12-24T03:32:49.618Z,5.23
2018-12-24T03:35:31.057Z,4.30
2018-12-24T03:41:03.985Z,4.47
2018-12-24T03:43:54.517Z,3.90
2018-12-24T03:49:35.153Z,4.00
2018-12-24T03:57:25.386Z,3.77
2018-12-24T04:00:16.098Z,3.93
2018-12-24T04:03:25.304Z,4.10
2018-12-24T04:09:10.527Z,3.80
2018-12-24T04:12:19.887Z,4.77
2018-12-24T04:15:09.258Z,4.53
2018-12-24T04:21:05.238Z,4.50
2018-12-24T04:23:46.139Z,5.07
2018-12-24T04:26:27.511Z,5.20
2018-12-24T04:29:09.323Z,6.03
2018-12-24T04:31:51.058Z,6.23
2018-12-24T04:34:32.768Z,5.70
2018-12-24T04:37:13.645Z,6.20
2018-12-24T04:39:54.569Z,5.97
2018-12-24T04:42:35.462Z,5.60
2018-12-24T04:45:24.663Z,5.97
2018-12-24T04:47:55.143Z,5.50
2018-12-24T04:51:04.279Z,5.97
2018-12-24T04:53:34.770Z,6.47
2018-12-24T04:56:05.101Z,5.83
2018-12-24T04:58:35.260Z,5.73
2018-12-24T05:01:24.426Z,5.20
2018-12-24T05:04:13.568Z,5.20
2018-12-24T05:06:44.072Z,4.80
2018-12-24T05:09:14.368Z,5.60
2018-12-24T05:12:04.200Z,5.90
2018-12-24T05:14:34.565Z,5.47
2018-12-24T05:17:04.845Z,7.70
2018-12-24T05:19:35.299Z,7.63
2018-12-24T05:22:24.470Z,6.60
2018-12-24T05:24:54.713Z,8.10
2018-12-24T05:27:25.009Z,8.07
2018-12-24T05:33:05.366Z,8.30
2018-12-24T05:38:35.938Z,14.10
2018-12-24T05:41:21.619Z,13.33
2018-12-24T05:44:03.440Z,9.97
2018-12-24T05:52:20.513Z,12.13
2018-12-24T05:58:19.214Z,13.20
2018-12-24T06:01:45.608Z,13.00
2018-12-24T06:04:36.367Z,13.00
2018-12-24T06:10:21.751Z,9.80
2018-12-24T06:13:10.929Z,13.53
2018-12-24T06:18:35.498Z,10.10
2018-12-24T06:21:05.941Z,7.93
2018-12-24T06:23:36.247Z,7.50
2018-12-24T06:26:06.713Z,9.50
2018-12-24T06:31:54.263Z,10.07
2018-12-24T06:40:19.784Z,8.17
2018-12-24T06:43:08.799Z,9.23
2018-12-24T06:48:51.916Z,10.97
2018-12-24T06:54:16.735Z,9.33
2018-12-24T06:56:46.966Z,8.37
2018-12-24T06:59:17.292Z,6.10
2018-12-24T07:02:05.509Z,7.13
2018-12-24T07:07:25.339Z,11.50
2018-12-24T07:10:14.451Z,13.00
2018-12-24T07:13:03.578Z,8.70
2018-12-24T07:15:33.846Z,12.67
2018-12-24T07:18:04.245Z,13.07
2018-12-24T07:21:12.021Z,10.20
2018-12-24T07:23:42.119Z,10.07
2018-12-24T07:26:12.882Z,10.60
2018-12-24T07:29:20.680Z,9.03
2018-12-24T07:31:51.061Z,5.87
2018-12-24T07:34:40.163Z,8.00
2018-12-24T07:40:00.801Z,6.13
2018-12-24T07:42:31.120Z,6.97
2018-12-24T07:45:01.426Z,6.53
2018-12-24T07:47:31.667Z,5.50
2018-12-24T07:50:13.235Z,5.67
2018-12-24T07:52:43.826Z,5.60
2018-12-24T07:55:14.119Z,3.67
2018-12-24T07:58:03.227Z,5.80
2018-12-24T08:00:34.106Z,4.93
2018-12-24T08:03:23.215Z,5.27
2018-12-24T08:05:54.004Z,3.50
2018-12-24T08:08:43.020Z,3.40
2018-12-24T08:11:32.077Z,4.13
2018-12-24T08:14:02.465Z,6.80
2018-12-24T08:16:32.817Z,4.20
2018-12-24T08:19:22.104Z,10.30
2018-12-24T08:22:11.189Z,5.20
2018-12-24T08:24:41.594Z,10.57
2018-12-24T08:27:30.718Z,12.50
2018-12-24T08:30:11.520Z,12.40
2018-12-24T08:32:41.826Z,8.17
2018-12-24T08:35:32.482Z,8.27
2018-12-24T08:38:22.547Z,4.77
2018-12-24T08:40:52.768Z,8.00
2018-12-24T08:43:23.125Z,6.90
2018-12-24T08:45:53.408Z,5.93
2018-12-24T08:48:23.759Z,5.13
2018-12-24T08:53:52.619Z,5.33
2018-12-24T08:56:22.925Z,4.23
2018-12-24T08:58:53.206Z,3.90
2018-12-24T09:01:23.680Z,4.00
2018-12-24T09:03:54.533Z,4.73
2018-12-24T09:06:24.853Z,3.63
2018-12-24T09:08:55.933Z,3.97
2018-12-24T09:11:26.249Z,3.10
2018-12-24T09:13:56.576Z,3.47
2018-12-24T09:16:26.988Z,6.77
2018-12-24T09:18:57.297Z,5.73
2018-12-24T09:21:27.569Z,3.57
2018-12-24T09:23:58.443Z,4.20
2018-12-24T09:26:28.717Z,4.60
2018-12-24T09:28:58.979Z,8.07
2018-12-24T09:31:29.402Z,5.10
2018-12-24T09:33:59.743Z,6.00
2018-12-24T09:39:25.208Z,3.90
2018-12-24T09:41:55.537Z,3.20
2018-12-24T09:44:44.591Z,3.37
2018-12-24T09:49:59.261Z,2.77
2018-12-24T09:58:20.103Z,4.50
2018-12-24T10:03:42.601Z,4.33
2018-12-24T10:06:15.970Z,3.97
2018-12-24T10:08:46.705Z,5.70
2018-12-24T10:11:16.974Z,6.20
2018-12-24T10:16:41.704Z,3.60
2018-12-24T10:19:12.045Z,4.50
2018-12-24T10:22:01.315Z,3.93
2018-12-24T10:24:31.843Z,5.70
2018-12-24T10:27:02.005Z,4.53
2018-12-24T10:29:32.222Z,4.60
2018-12-24T10:32:02.528Z,5.10
2018-12-24T10:34:51.681Z,5.37
2018-12-24T10:37:22.099Z,6.50
2018-12-24T10:39:52.373Z,4.40
2018-12-24T10:42:41.629Z,8.20
2018-12-24T10:45:16.483Z,5.00
2018-12-24T10:47:44.006Z,6.10
2018-12-24T10:50:14.453Z,7.00
2018-12-24T10:52:55.948Z,6.90
2018-12-24T10:55:26.378Z,8.20
2018-12-24T10:57:56.623Z,8.90
2018-12-24T11:00:26.918Z,8.77
2018-12-24T11:02:57.343Z,9.70
2018-12-24T11:05:46.825Z,9.53
2018-12-24T11:08:35.863Z,8.97
2018-12-24T11:11:06.215Z,8.37
2018-12-24T11:13:36.468Z,8.20
2018-12-24T11:16:25.564Z,7.47
2018-12-24T11:18:55.939Z,7.57
2018-12-24T11:21:26.491Z,9.60
2018-12-24T11:23:56.849Z,8.40
2018-12-24T11:26:27.088Z,9.93
2018-12-24T11:28:57.526Z,9.93
2018-12-24T11:31:27.892Z,9.03
2018-12-24T11:33:58.633Z,10.20
2018-12-24T11:36:28.987Z,9.80
2018-12-24T11:38:59.362Z,7.60
2018-12-24T11:41:29.730Z,8.63
2018-12-24T11:44:00.009Z,6.03
2018-12-24T11:46:30.368Z,7.63
2018-12-24T11:49:00.615Z,8.07
2018-12-24T11:51:30.883Z,8.13
2018-12-24T11:54:01.314Z,8.50
2018-12-24T11:56:31.614Z,8.00
2018-12-24T11:59:02.381Z,7.63
2018-12-24T12:01:32.771Z,6.67
2018-12-24T12:04:03.042Z,7.47
2018-12-24T12:06:33.433Z,8.27
2018-12-24T12:11:42.359Z,9.67
2018-12-24T12:14:12.627Z,8.03
2018-12-24T12:16:42.917Z,9.17
2018-12-24T12:22:25.387Z,8.10
2018-12-24T12:24:55.656Z,7.30
2018-12-24T12:27:25.997Z,7.60
2018-12-24T12:29:56.308Z,7.30
2018-12-24T12:35:16.352Z,7.20
2018-12-24T12:37:46.634Z,7.27
2018-12-24T12:40:17.108Z,9.13
2018-12-24T12:42:47.532Z,8.57
2018-12-24T12:45:17.965Z,9.40
2018-12-24T12:47:48.246Z,8.53
2018-12-24T12:50:18.542Z,8.37
2018-12-24T12:52:48.846Z,8.17
2018-12-24T12:55:30.912Z,9.30
2018-12-24T12:58:12.276Z,9.00
2018-12-24T13:00:43.175Z,8.73
2018-12-24T13:03:13.432Z,8.30
2018-12-24T13:05:43.731Z,8.63
2018-12-24T13:08:14.172Z,9.03
2018-12-24T13:10:44.517Z,8.70
2018-12-24T13:13:14.895Z,8.80
2018-12-24T13:16:04.025Z,8.97
2018-12-24T13:18:34.394Z,8.70
2018-12-24T13:21:04.719Z,8.73
2018-12-24T13:23:35.091Z,8.83
2018-12-24T13:26:05.415Z,8.70
2018-12-24T13:28:35.649Z,9.37
2018-12-24T13:31:06.093Z,12.17
2018-12-24T13:33:36.506Z,12.47
2018-12-24T13:41:38.089Z,13.53
2018-12-24T13:44:08.513Z,13.23
2018-12-24T13:46:38.781Z,13.50
2018-12-24T13:49:08.968Z,13.13
2018-12-24T13:51:39.423Z,10.10
2018-12-24T13:54:09.745Z,12.87
2018-12-24T13:59:35.710Z,9.63
2018-12-24T14:02:06.012Z,12.10
2018-12-24T14:04:36.281Z,11.20
2018-12-24T14:10:21.854Z,10.07
2018-12-24T14:12:53.825Z,9.80
2018-12-24T14:15:24.717Z,9.37
2018-12-24T14:17:55.150Z,8.87
2018-12-24T14:20:25.454Z,10.83
2018-12-24T14:22:55.717Z,9.13
2018-12-24T14:25:26.122Z,9.10
2018-12-24T14:27:56.475Z,9.13
2018-12-24T14:30:26.741Z,8.93
2018-12-24T14:32:57.132Z,9.13
2018-12-24T14:35:27.302Z,9.00
2018-12-24T14:37:57.566Z,8.83
2018-12-24T14:40:46.810Z,9.23
2018-12-24T14:43:17.216Z,8.60
2018-12-24T14:45:47.570Z,8.70
2018-12-24T14:48:17.980Z,8.70
2018-12-24T14:50:48.211Z,8.20
2018-12-24T14:53:18.544Z,8.00
2018-12-24T14:55:48.978Z,8.00
2018-12-24T14:58:19.288Z,7.27
2018-12-24T15:00:49.595Z,7.97
2018-12-24T15:03:19.980Z,8.40
2018-12-24T15:05:50.405Z,9.10
2018-12-24T15:08:20.653Z,8.53
2018-12-24T15:10:50.995Z,8.93
2018-12-24T15:13:21.430Z,9.43
2018-12-24T15:15:51.692Z,9.70
2018-12-24T15:18:22.114Z,9.60
2018-12-24T15:20:52.423Z,9.70
2018-12-24T15:23:22.783Z,11.27
2018-12-24T15:25:53.181Z,12.00
2018-12-24T15:28:23.447Z,11.33
2018-12-24T15:30:53.832Z,12.37
2018-12-24T15:33:24.135Z,11.73
2018-12-24T15:35:54.422Z,11.60
2018-12-24T15:38:24.868Z,12.70
2018-12-24T15:40:55.209Z,13.53
2018-12-24T15:43:25.498Z,12.83
2018-12-24T15:45:55.794Z,11.73
2018-12-24T15:48:26.344Z,10.57
2018-12-24T15:51:15.472Z,12.67
2018-12-24T15:53:46.302Z,17.50
2018-12-24T15:56:17.297Z,18.53
2018-12-24T15:58:58.512Z,16.60
2018-12-24T16:01:28.874Z,13.57
2018-12-24T16:03:59.231Z,14.13
2018-12-24T16:09:25.916Z,11.57
2018-12-24T16:14:45.524Z,9.77
2018-12-24T16:17:15.907Z,10.37
2018-12-24T16:19:46.220Z,9.00
2018-12-24T16:22:16.602Z,10.47
2018-12-24T16:24:46.939Z,10.30
2018-12-24T16:27:17.254Z,10.20
2018-12-24T16:29:47.690Z,9.47
2018-12-24T16:32:17.978Z,9.17
2018-12-24T16:34:48.331Z,9.70
2018-12-24T16:37:18.741Z,9.20
2018-12-24T16:40:07.919Z,10.90
2018-12-24T16:42:38.435Z,9.50
2018-12-24T16:45:08.680Z,9.00
2018-12-24T16:47:39.003Z,10.37
2018-12-24T16:50:09.336Z,9.97
2018-12-24T16:52:39.625Z,10.80
2018-12-24T16:55:09.948Z,10.10
2018-12-24T16:57:41.330Z,11.00
2018-12-24T17:00:24.117Z,11.83
2018-12-24T17:02:54.510Z,11.90
2018-12-24T17:05:25.059Z,10.83
2018-12-24T17:07:55.357Z,9.60
2018-12-24T17:10:25.775Z,10.77
2018-12-24T17:13:14.841Z,10.97
2018-12-24T17:15:45.206Z,10.60
2018-12-24T17:18:15.531Z,10.33
2018-12-24T17:20:45.817Z,9.90
2018-12-24T17:23:16.227Z,10.30
2018-12-24T17:25:46.541Z,10.93
2018-12-24T17:28:36.011Z,10.97
2018-12-24T17:34:07.132Z,13.60
2018-12-24T17:36:37.972Z,14.50
2018-12-24T17:42:09.592Z,11.97
2018-12-24T17:44:39.864Z,13.50
2018-12-24T17:47:16.215Z,12.30
2018-12-24T17:49:42.269Z,14.17
2018-12-24T17:52:12.593Z,12.90
2018-12-24T17:55:01.764Z,12.27
2018-12-24T17:57:32.476Z,11.20
2018-12-24T18:00:02.830Z,10.50
2018-12-24T18:02:33.161Z,10.63
2018-12-24T18:05:03.522Z,10.40
2018-12-24T18:07:33.801Z,9.70
2018-12-24T18:10:04.275Z,9.40
2018-12-24T18:12:34.633Z,9.67
2018-12-24T18:15:04.943Z,8.83
2018-12-24T18:17:35.433Z,7.57
2018-12-24T18:20:25.826Z,6.90
2018-12-24T18:22:56.420Z,7.07
2018-12-24T18:25:27.165Z,6.97
2018-12-24T18:27:57.431Z,6.83
2018-12-24T18:30:27.754Z,7.73
2018-12-24T18:35:53.269Z,7.37
2018-12-24T18:38:23.539Z,6.23
2018-12-24T18:40:53.902Z,5.43
2018-12-24T18:43:24.341Z,3.97
2018-12-24T18:45:54.653Z,2.83
2018-12-24T18:48:24.964Z,2.80
2018-12-24T18:50:55.336Z,3.13
2018-12-24T18:53:26.044Z,4.33
2018-12-24T18:55:56.333Z,3.17
2018-12-24T18:58:45.398Z,3.00
2018-12-24T19:04:11.452Z,3.47
2018-12-24T19:06:42.249Z,3.07
2018-12-24T19:09:12.562Z,3.50
2018-12-24T19:11:42.935Z,3.23
2018-12-24T19:14:13.401Z,2.90
2018-12-24T19:16:43.703Z,3.10
2018-12-24T19:19:14.041Z,3.37
2018-12-24T19:21:44.383Z,2.83
2018-12-24T19:24:14.638Z,2.73
2018-12-24T19:26:45.173Z,2.93
2018-12-24T19:29:15.910Z,3.20
2018-12-24T19:31:46.216Z,3.90
2018-12-24T19:34:16.529Z,4.50
2018-12-24T19:36:46.838Z,3.60
2018-12-24T19:39:35.925Z,3.50
2018-12-24T19:42:06.265Z,2.23
2018-12-24T19:44:36.541Z,2.57
2018-12-24T19:47:06.887Z,2.50
2018-12-24T19:52:50.450Z,2.60
2018-12-24T19:55:20.736Z,2.30
2018-12-24T19:58:09.835Z,2.53
2018-12-24T20:00:40.133Z,2.00
2018-12-24T20:03:10.467Z,2.07
2018-12-24T20:05:40.951Z,2.07
2018-12-24T20:08:30.054Z,1.73
2018-12-24T20:11:11.544Z,1.97
2018-12-24T20:13:41.809Z,1.90
2018-12-24T20:16:12.133Z,2.73
2018-12-24T20:22:04.173Z,2.03
2018-12-24T20:24:53.414Z,2.33
2018-12-24T20:27:23.828Z,3.03
2018-12-24T20:29:54.116Z,2.10
2018-12-24T20:32:24.431Z,2.43
2018-12-24T20:34:54.808Z,2.43
2018-12-24T20:37:25.135Z,2.30
2018-12-24T20:39:55.388Z,1.93
2018-12-24T20:42:44.495Z,1.50
2018-12-24T20:48:22.802Z,2.17
2018-12-24T20:51:16.279Z,2.30
2018-12-24T20:53:44.980Z,2.10
2018-12-24T20:56:34.092Z,2.60
2018-12-24T20:59:04.498Z,2.13
2018-12-24T21:01:34.790Z,2.70
2018-12-24T21:04:15.889Z,2.57
2018-12-24T21:06:46.288Z,2.67
2018-12-24T21:09:16.853Z,2.57
2018-12-24T21:11:47.242Z,2.00
2018-12-24T21:19:59.789Z,3.53
2018-12-24T21:22:30.050Z,2.33
2018-12-24T21:25:00.360Z,4.50
2018-12-24T21:27:30.745Z,3.60
2018-12-24T21:32:50.756Z,5.90
2018-12-24T21:35:21.132Z,5.50
2018-12-24T21:37:51.400Z,4.15
2018-12-24T21:46:21.059Z,5.60
2018-12-24T21:48:51.428Z,4.78
2018-12-24T21:51:21.724Z,4.62
2018-12-24T21:54:11.279Z,3.85
2018-12-24T21:59:51.112Z,3.42
2018-12-24T22:02:21.398Z,3.00
2018-12-24T22:05:02.597Z,4.25
2018-12-24T22:07:44.255Z,4.10
2018-12-24T22:10:15.483Z,4.08
2018-12-24T22:12:45.859Z,3.33
2018-12-24T22:15:16.200Z,4.30
2018-12-24T22:17:46.569Z,3.70
2018-12-24T22:20:16.837Z,3.58
2018-12-24T22:22:54.047Z,3.98
2018-12-24T22:25:24.391Z,3.55
2018-12-24T22:28:13.607Z,3.30
2018-12-24T22:30:43.967Z,3.83
2018-12-24T22:33:14.281Z,3.95
2018-12-24T22:35:44.563Z,3.27
2018-12-24T22:38:14.894Z,4.15
2018-12-24T22:41:04.111Z,3.12
2018-12-24T22:43:34.434Z,3.72
2018-12-24T22:46:04.726Z,4.15
2018-12-24T22:54:10.590Z,4.67
2018-12-24T22:56:42.229Z,3.87
2018-12-24T23:01:59.904Z,3.33
2018-12-24T23:04:30.186Z,4.95
2018-12-24T23:12:47.052Z,3.17
2018-12-24T23:15:36.134Z,3.20
2018-12-24T23:21:02.547Z,3.75
2018-12-24T23:23:32.813Z,3.50
2018-12-24T23:26:03.034Z,4.62
2018-12-24T23:28:33.343Z,4.20
2018-12-24T23:31:03.714Z,4.30
2018-12-24T23:33:34.047Z,4.10
2018-12-24T23:36:04.432Z,3.83
2018-12-24T23:38:53.505Z,5.30
2018-12-24T23:41:23.932Z,5.12
2018-12-24T23:44:12.983Z,5.50
2018-12-24T23:47:02.113Z,3.87
2018-12-24T23:49:32.470Z,3.47
2018-12-24T23:52:02.812Z,4.55
2018-12-24T23:54:33.258Z,6.30
2018-12-24T23:59:54.696Z,5.00
